Terminal Aerodrome Forecast
Issued by NWS Wilmington, NC

Home | Current Version | Previous Version | Text Only | Print | Product List | Glossary On
Versions: 1 2 3 4 5 6 7 8 9 10 11 12 13 14 15 16 17 18 19 20
000
FTUS42 KILM 301227 AAA
TAFLBT
TAF AMD
KLBT 301227Z 3012/3112 20008KT P6SM FEW050 SCT120 WS007/22035KT
     FM301300 23011G18KT P6SM VCSH SCT025 BKN040
      TEMPO 3013/3016 6SM -RA SCT015 BKN025
     FM302000 28012G20KT P6SM SCT020 SCT050
     FM302300 VRB03KT P6SM SKC=

USA.gov is the U.S. government's official web portal to all federal, state and local government web resources and services.